Time;durP1;ratioP1;P1;durP2;ratioP2;P2;SDS_P1;SDS_P2;PMS_P1;PMS_P2;Temp;Humidity;BMP_temperature;BMP_pressure;BME280_temperature;BME280_humidity;BME280_pressure;Samples;Min_cycle;Max_cycle;Signal;HPM_P1;HPM_P2
2022/05/21 00:02:07;;;;;;;12.90;10.07;;;;;;;9.01;96.72;101836.91;10472617;28;20295;-73
2022/05/21 00:07:11;;;;;;;10.77;8.27;;;;;;;8.98;97.00;101844.53;10458491;28;20473;-73
2022/05/21 00:12:11;;;;;;;13.52;9.05;;;;;;;8.98;97.17;101840.19;10452871;28;20056;-73
2022/05/21 00:17:12;;;;;;;9.40;6.00;;;;;;;9.19;96.60;101835.56;10456887;28;20160;-73
2022/05/21 00:22:12;;;;;;;14.65;7.05;;;;;;;9.30;96.23;101841.53;10458262;28;20451;-73
2022/05/21 00:27:13;;;;;;;11.02;6.35;;;;;;;9.32;94.76;101845.13;10457479;28;20025;-73
2022/05/21 00:32:14;;;;;;;17.05;7.15;;;;;;;9.22;95.05;101854.06;10458144;28;20025;-73
2022/05/21 00:37:15;;;;;;;9.07;5.72;;;;;;;9.14;95.37;101844.81;10471383;28;20048;-73
2022/05/21 00:42:15;;;;;;;15.02;7.07;;;;;;;9.14;95.47;101841.25;10455569;28;20400;-73
2022/05/21 00:47:17;;;;;;;9.07;5.97;;;;;;;9.29;94.38;101838.81;10456419;28;20028;-73
2022/05/21 00:52:19;;;;;;;10.60;4.78;;;;;;;9.36;92.99;101828.88;10456144;28;20037;-73
2022/05/21 00:57:40;;;;;;;8.55;4.88;;;;;;;9.24;93.27;101847.25;10469433;28;20384;-73
2022/05/21 01:02:47;;;;;;;6.47;3.28;;;;;;;9.17;93.96;101845.00;10439652;28;20044;-73
2022/05/21 01:07:47;;;;;;;8.60;3.90;;;;;;;9.20;93.67;101841.69;10453760;28;20027;-72
2022/05/21 01:12:50;;;;;;;9.50;3.85;;;;;;;9.25;93.11;101850.75;10435474;28;20048;-72
2022/05/21 01:17:51;;;;;;;8.63;3.90;;;;;;;9.16;92.51;101845.81;10407884;28;20041;-73
2022/05/21 01:22:53;;;;;;;9.60;4.47;;;;;;;9.21;92.88;101841.81;10452941;28;20515;-73
2022/05/21 01:27:54;;;;;;;5.03;3.35;;;;;;;9.17;92.55;101842.41;10448987;28;20063;-73
2022/05/21 01:32:54;;;;;;;10.15;5.45;;;;;;;9.27;92.07;101845.66;10469361;28;20029;-73
2022/05/21 01:37:55;;;;;;;12.00;3.45;;;;;;;9.24;91.79;101833.25;10451787;28;20067;-72
2022/05/21 01:48:18;;;;;;;6.78;3.08;;;;;;;9.04;92.60;101840.63;10437423;28;20029;-72
2022/05/21 01:53:19;;;;;;;8.57;4.80;;;;;;;9.04;92.62;101837.13;10452419;28;20056;-72
2022/05/21 01:58:20;;;;;;;8.50;4.75;;;;;;;8.94;92.97;101846.00;10467543;28;20039;-72
2022/05/21 02:03:20;;;;;;;12.73;4.88;;;;;;;8.99;93.60;101835.91;10452947;28;20072;-72
2022/05/21 02:08:21;;;;;;;11.35;4.97;;;;;;;9.23;93.41;101847.13;10447620;28;20039;-74
2022/05/21 02:13:24;;;;;;;8.93;3.92;;;;;;;9.43;92.43;101843.28;10440398;28;20140;-73
2022/05/21 02:18:24;;;;;;;6.80;3.75;;;;;;;9.64;91.53;101849.03;10434820;28;20041;-72
2022/05/21 02:23:25;;;;;;;11.27;5.35;;;;;;;9.71;90.80;101847.75;10443878;28;20439;-73
2022/05/21 02:28:26;;;;;;;10.63;5.60;;;;;;;9.81;90.20;101846.63;10451104;28;20060;-72
2022/05/21 02:33:26;;;;;;;11.00;5.75;;;;;;;9.87;90.03;101840.94;10451838;28;20029;-72
2022/05/21 02:43:46;;;;;;;11.25;5.32;;;;;;;9.95;89.23;101856.31;10452958;28;20037;-73
2022/05/21 02:48:46;;;;;;;10.98;5.30;;;;;;;9.97;89.08;101853.81;10466834;28;20734;-72
2022/05/21 02:53:47;;;;;;;12.15;5.65;;;;;;;10.00;88.53;101846.16;10450955;28;20081;-72
2022/05/21 02:58:47;;;;;;;14.45;7.65;;;;;;;9.99;88.62;101854.81;10458028;28;20075;-73
2022/05/21 03:03:48;;;;;;;19.02;7.30;;;;;;;9.94;88.96;101856.22;10474819;28;20465;-72
2022/05/21 03:14:07;;;;;;;16.80;9.38;;;;;;;9.99;88.46;101860.03;10460683;28;20045;-73
2022/05/21 03:19:08;;;;;;;19.77;6.38;;;;;;;10.01;88.17;101860.13;10464116;28;20083;-73
2022/05/21 03:24:08;;;;;;;15.98;5.63;;;;;;;10.02;87.55;101859.31;10458901;28;20503;-73
2022/05/21 03:29:09;;;;;;;10.98;5.75;;;;;;;9.98;88.38;101856.50;10472730;28;20035;-72
2022/05/21 03:34:09;;;;;;;13.98;6.32;;;;;;;9.94;88.19;101856.22;10458411;28;20068;-74
2022/05/21 03:39:10;;;;;;;9.23;4.88;;;;;;;9.96;88.03;101845.03;10469342;28;20112;-73
2022/05/21 03:44:10;;;;;;;14.35;7.22;;;;;;;9.95;87.97;101839.72;10458682;28;20485;-73
2022/05/21 03:49:11;;;;;;;23.02;9.27;;;;;;;10.01;88.37;101847.06;10458067;28;20153;-73
2022/05/21 03:54:11;;;;;;;17.00;6.43;;;;;;;10.01;88.30;101863.66;10458949;28;20044;-73
2022/05/21 03:59:12;;;;;;;11.70;6.15;;;;;;;10.06;87.75;101861.34;10456850;28;20073;-73
2022/05/21 04:04:12;;;;;;;12.82;5.00;;;;;;;10.09;87.77;101869.38;10455322;28;20037;-72
2022/05/21 04:09:13;;;;;;;10.52;5.90;;;;;;;10.09;87.54;101872.91;10456887;28;20131;-72
2022/05/21 04:14:14;;;;;;;10.32;4.55;;;;;;;10.13;88.09;101874.00;10457136;28;20059;-72
2022/05/21 04:19:14;;;;;;;12.75;4.97;;;;;;;10.21;87.20;101875.41;10457790;28;20142;-73
2022/05/21 04:24:15;;;;;;;12.18;5.10;;;;;;;10.25;87.06;101877.44;10473894;28;20060;-72
2022/05/21 04:29:15;;;;;;;13.18;6.45;;;;;;;10.28;86.63;101889.81;10459205;28;20025;-72
2022/05/21 04:34:16;;;;;;;9.35;5.07;;;;;;;10.32;86.11;101897.06;10473566;28;20075;-72
2022/05/21 04:39:16;;;;;;;12.63;7.00;;;;;;;10.37;86.10;101893.03;10460555;28;20451;-72
2022/05/21 04:44:17;;;;;;;10.40;5.57;;;;;;;10.40;86.33;101902.81;10457850;28;20485;-73
2022/05/21 04:49:17;;;;;;;17.60;6.03;;;;;;;10.45;86.33;101900.50;10443803;28;20068;-73
2022/05/21 04:54:18;;;;;;;12.40;6.25;;;;;;;10.54;86.12;101902.00;10454484;28;20037;-73
2022/05/21 04:59:18;;;;;;;13.80;6.80;;;;;;;10.65;85.72;101913.16;10452541;28;20072;-72
2022/05/21 05:04:19;;;;;;;9.90;5.32;;;;;;;10.76;85.25;101913.84;10454719;28;20055;-73
2022/05/21 05:09:22;;;;;;;15.00;5.82;;;;;;;10.81;85.25;101912.41;10449885;28;20087;-73
2022/05/21 05:14:23;;;;;;;15.55;6.57;;;;;;;10.86;85.12;101921.47;10432609;28;20036;-72
2022/05/21 05:19:23;;;;;;;12.20;5.07;;;;;;;11.12;84.31;101923.94;10442031;28;20043;-72
2022/05/21 05:24:25;;;;;;;11.02;4.85;;;;;;;11.22;83.56;101917.53;10439574;28;20222;-73
2022/05/21 05:29:26;;;;;;;15.63;9.60;;;;;;;11.23;82.82;101924.59;10451268;28;20036;-73
2022/05/21 05:34:27;;;;;;;16.58;9.75;;;;;;;11.20;82.90;101935.81;10467038;28;20501;-74
2022/05/21 05:39:28;;;;;;;11.40;5.80;;;;;;;11.12;83.07;101931.78;10426013;28;20036;-74
2022/05/21 05:44:29;;;;;;;21.23;10.38;;;;;;;11.08;84.05;101938.53;10456270;28;20104;-73
2022/05/21 05:49:29;;;;;;;22.48;13.90;;;;;;;11.08;84.10;101942.91;10455715;28;20441;-74
2022/05/21 05:54:29;;;;;;;18.48;8.98;;;;;;;11.22;84.02;101931.56;10450571;28;20068;-74
2022/05/21 05:59:48;;;;;;;16.30;8.38;;;;;;;11.47;83.08;101930.44;10432767;28;20037;-73
2022/05/21 06:04:49;;;;;;;17.80;10.88;;;;;;;11.70;81.92;101926.56;10452982;28;20039;-74
2022/05/21 06:09:49;;;;;;;15.10;7.15;;;;;;;11.84;81.36;101923.88;10468017;28;20079;-74
2022/05/21 06:14:50;;;;;;;16.98;8.75;;;;;;;11.98;80.82;101925.59;10453351;28;20048;-73
2022/05/21 06:19:51;;;;;;;20.15;8.25;;;;;;;12.19;80.17;101928.63;10451480;28;20120;-74
2022/05/21 06:24:52;;;;;;;15.17;7.23;;;;;;;12.37;79.65;101933.13;10452103;28;20473;-73
2022/05/21 06:29:52;;;;;;;15.48;7.03;;;;;;;13.10;78.25;101929.25;10452182;28;20067;-73
2022/05/21 06:34:53;;;;;;;15.75;9.23;;;;;;;13.44;75.38;101936.34;10460193;28;20070;-73
2022/05/21 06:39:54;;;;;;;12.30;7.22;;;;;;;13.29;75.19;101952.19;10458656;28;20120;-74
2022/05/21 06:44:55;;;;;;;14.48;7.90;;;;;;;12.94;76.43;101951.16;10461700;28;20116;-74
2022/05/21 06:49:56;;;;;;;14.38;6.78;;;;;;;12.83;77.28;101955.81;10461440;28;20104;-73
2022/05/21 06:54:56;;;;;;;16.70;7.55;;;;;;;12.80;78.07;101957.38;10459285;28;20544;-73
2022/05/21 06:59:57;;;;;;;14.80;7.80;;;;;;;13.12;76.01;101951.25;10460228;28;20032;-74
2022/05/21 07:10:20;;;;;;;14.23;9.15;;;;;;;13.26;75.90;101948.47;10462124;28;20044;-73
2022/05/21 07:15:20;;;;;;;22.60;9.77;;;;;;;13.29;76.24;101957.44;10460045;28;20044;-73
2022/05/21 07:20:21;;;;;;;14.88;7.70;;;;;;;13.18;76.99;101963.84;10443235;28;20025;-73
2022/05/21 07:25:24;;;;;;;23.02;8.57;;;;;;;13.21;76.29;101967.53;10461357;28;20055;-73
2022/05/21 07:30:25;;;;;;;19.42;9.15;;;;;;;13.26;76.52;101977.38;10459304;28;20025;-73
2022/05/21 07:35:26;;;;;;;19.75;7.82;;;;;;;13.24;76.43;101993.09;10460252;28;20033;-73
2022/05/21 07:40:27;;;;;;;24.87;9.07;;;;;;;13.47;76.00;101983.84;10476308;28;20055;-73
2022/05/21 07:45:27;;;;;;;20.00;8.93;;;;;;;14.00;73.82;101983.94;10457833;28;20025;-73
2022/05/21 07:50:28;;;;;;;20.10;8.95;;;;;;;14.23;73.00;101995.69;10459919;28;20112;-73
2022/05/21 07:55:28;;;;;;;33.72;10.50;;;;;;;14.24;72.35;101992.22;10475115;28;20118;-73
2022/05/21 08:00:28;;;;;;;20.48;8.80;;;;;;;14.63;71.79;101998.50;10460199;28;20029;-73
2022/05/21 08:05:29;;;;;;;18.23;8.88;;;;;;;15.70;67.53;101995.56;10458104;28;20947;-73
2022/05/21 08:10:30;;;;;;;15.52;6.88;;;;;;;17.26;62.21;101987.91;10440900;28;20037;-73
2022/05/21 08:15:30;;;;;;;19.65;7.82;;;;;;;19.41;56.31;101984.44;10456665;28;20051;-73
2022/05/21 08:20:32;;;;;;;11.98;7.13;;;;;;;19.29;54.27;101980.56;10452108;28;20037;-74
2022/05/21 08:30:51;;;;;;;15.05;7.78;;;;;;;18.34;56.67;102001.47;10456325;28;20103;-74
2022/05/21 08:35:51;;;;;;;15.48;8.55;;;;;;;17.04;60.10;102002.06;10460094;28;20044;-74
2022/05/21 08:41:03;;;;;;;13.32;8.15;;;;;;;18.58;58.12;102012.84;10457220;28;20064;-74
2022/05/21 08:46:30;;;;;;;18.30;9.30;;;;;;;17.31;58.62;102007.50;10472450;28;20048;-73
2022/05/21 08:51:33;;;;;;;20.10;8.15;;;;;;;16.04;61.99;102012.91;10439650;28;20068;-73
2022/05/21 08:56:34;;;;;;;13.43;7.05;;;;;;;15.88;63.57;102007.78;10453717;28;20527;-73
2022/05/21 09:01:35;;;;;;;25.20;9.45;;;;;;;15.54;64.33;102008.06;10454939;28;20068;-74
2022/05/21 09:06:55;;;;;;;15.50;7.13;;;;;;;14.84;65.85;102014.47;10449842;28;20033;-74
2022/05/21 09:12:08;;;;;;;13.70;7.10;;;;;;;14.71;67.53;102017.31;10454740;28;20404;-74
2022/05/21 09:17:28;;;;;;;13.43;7.75;;;;;;;16.41;66.21;102001.28;10455141;28;20044;-73
2022/05/21 09:22:29;;;;;;;14.75;8.30;;;;;;;19.06;54.88;101994.06;10454394;28;20057;-74
2022/05/21 09:27:43;;;;;;;13.23;7.15;;;;;;;20.54;51.79;101984.81;10453184;28;20028;-75
2022/05/21 09:32:46;;;;;;;9.05;6.38;;;;;;;21.07;51.69;101994.03;10454977;28;20432;-74
2022/05/21 09:37:47;;;;;;;16.30;6.60;;;;;;;21.94;47.35;101982.47;10455757;28;20033;-75
2022/05/21 09:48:06;;;;;;;16.20;6.40;;;;;;;22.68;45.12;101983.75;10454554;28;20025;-74
2022/05/21 09:53:25;;;;;;;13.83;4.73;;;;;;;22.88;44.05;101975.13;10456058;28;20499;-74
2022/05/21 09:58:26;;;;;;;9.82;4.55;;;;;;;22.20;43.25;101980.25;10453401;28;20037;-75
2022/05/21 10:03:49;;;;;;;8.13;4.30;;;;;;;23.22;46.65;101980.91;10437250;28;20473;-74
2022/05/21 10:14:43;;;;;;;11.65;5.13;;;;;;;19.60;48.54;101988.53;10454019;28;20408;-74
2022/05/21 10:19:54;;;;;;;13.15;5.18;;;;;;;19.77;51.79;101979.28;10453237;28;20476;-75
2022/05/21 10:24:58;;;;;;;13.93;5.40;;;;;;;19.49;51.56;101999.75;10468232;28;20032;-75
2022/05/21 10:30:30;;;;;;;14.05;5.95;;;;;;;20.67;49.35;101991.31;10452920;28;20047;-75
2022/05/21 10:35:39;;;;;;;9.40;6.93;;;;;;;21.65;46.27;101974.84;10454000;28;20350;-75
2022/05/21 10:41:01;;;;;;;9.77;5.75;;;;;;;21.24;46.73;101975.75;10454093;28;20048;-75
2022/05/21 10:46:43;;;;;;;14.07;6.15;;;;;;;21.47;47.16;101977.97;10451078;28;20029;-74
2022/05/21 10:51:56;;;;;;;15.67;5.43;;;;;;;21.58;45.62;101984.41;10467219;28;20021;-75
2022/05/21 10:57:24;;;;;;;7.85;4.43;;;;;;;22.55;43.53;101974.63;10454265;28;20311;-75
2022/05/21 11:03:02;;;;;;;14.35;6.72;;;;;;;21.08;45.63;101987.84;10452315;28;20484;-75
2022/05/21 11:08:24;;;;;;;13.70;5.65;;;;;;;18.89;51.25;101993.53;10453407;28;20076;-74
2022/05/21 11:13:48;;;;;;;10.38;4.80;;;;;;;17.82;52.07;101997.88;10453032;28;20500;-74
2022/05/21 11:18:56;;;;;;;9.40;6.50;;;;;;;17.70;52.41;101997.44;10454522;28;20482;-75
2022/05/21 11:24:10;;;;;;;13.80;5.20;;;;;;;21.65;48.01;101977.50;10460809;28;20156;-75
2022/05/21 11:29:17;;;;;;;13.45;4.90;;;;;;;22.08;45.99;101980.03;10459724;28;20583;-75
2022/05/21 11:39:39;;;;;;;10.32;5.72;;;;;;;20.77;45.40;101981.78;10446438;28;20099;-75
2022/05/21 11:44:58;;;;;;;11.13;5.32;;;;;;;19.80;47.53;101983.75;10460228;28;20041;-75
2022/05/21 11:50:01;;;;;;;7.25;4.88;;;;;;;19.57;49.04;101978.72;10463752;28;20029;-75
2022/05/21 11:55:11;;;;;;;9.75;5.35;;;;;;;22.61;43.18;101976.50;10459623;28;20063;-75
2022/05/21 12:00:17;;;;;;;16.73;5.45;;;;;;;21.71;43.02;101986.50;10460531;28;20041;-75
2022/05/21 12:05:38;;;;;;;7.95;4.65;;;;;;;20.06;45.51;101981.84;10459630;28;20077;-75
2022/05/21 12:11:06;;;;;;;13.40;5.45;;;;;;;19.17;48.79;101994.41;10457110;28;20052;-74
2022/05/21 12:16:22;;;;;;;7.72;5.78;;;;;;;18.98;48.84;101987.63;10458021;28;20392;-74
2022/05/21 12:21:36;;;;;;;11.80;4.95;;;;;;;22.12;44.44;101968.56;10458552;28;20036;-75
2022/05/21 12:26:37;;;;;;;9.80;6.22;;;;;;;23.36;40.71;101967.75;10458777;28;20033;-75
2022/05/21 12:31:49;;;;;;;9.40;6.28;;;;;;;24.72;37.74;101956.50;10440226;28;20029;-77
2022/05/21 12:36:56;;;;;;;11.85;5.43;;;;;;;23.28;39.36;101956.09;10423969;28;20380;-76
2022/05/21 12:41:57;;;;;;;10.60;5.05;;;;;;;22.18;41.90;101952.66;10458448;28;20123;-76
2022/05/21 12:46:58;;;;;;;8.27;5.80;;;;;;;21.96;42.04;101959.41;10438619;28;20025;-77
2022/05/21 12:51:59;;;;;;;11.93;5.73;;;;;;;20.78;44.54;101971.22;10430625;28;20025;-76
2022/05/21 12:57:10;;;;;;;11.15;5.93;;;;;;;20.77;43.83;101957.84;10457480;28;20040;-76
2022/05/21 13:02:16;;;;;;;10.10;6.10;;;;;;;21.97;43.43;101955.88;10404386;28;20026;-76
2022/05/21 13:07:19;;;;;;;13.93;5.10;;;;;;;23.72;40.35;101952.13;10432080;28;20120;-74
2022/05/21 13:12:19;;;;;;;14.43;5.97;;;;;;;23.03;41.28;101947.72;10481426;28;20045;-74
2022/05/21 13:17:32;;;;;;;8.25;5.20;;;;;;;21.97;42.21;101956.75;10496856;28;20388;-74
2022/05/21 13:22:57;;;;;;;8.68;5.63;;;;;;;24.42;38.77;101940.28;10458020;28;20040;-74
2022/05/21 13:27:58;;;;;;;10.82;4.82;;;;;;;26.06;36.80;101948.03;10456405;28;20041;-76
2022/05/21 13:33:00;;;;;;;10.00;4.77;;;;;;;26.73;34.92;101944.41;10455985;28;20049;-75
2022/05/21 13:38:05;;;;;;;9.15;4.78;;;;;;;24.35;35.80;101933.09;10438919;28;20029;-76
2022/05/21 13:43:07;;;;;;;6.07;3.70;;;;;;;23.42;38.96;101932.22;10453545;28;20404;-75
2022/05/21 13:48:13;;;;;;;10.07;4.97;;;;;;;22.82;39.04;101929.66;10454227;28;20074;-76
2022/05/21 13:53:16;;;;;;;10.52;5.35;;;;;;;22.44;40.91;101930.84;10454629;28;20037;-76
2022/05/21 13:58:37;;;;;;;25.13;6.57;;;;;;;21.96;42.08;101930.97;10437892;28;20051;-76
2022/05/21 14:03:45;;;;;;;9.63;4.13;;;;;;;21.99;42.97;101924.81;10453190;28;20041;-75
2022/05/21 14:09:06;;;;;;;9.73;5.03;;;;;;;22.00;42.48;101913.28;10453205;28;20041;-74
2022/05/21 14:14:08;;;;;;;12.27;4.75;;;;;;;21.79;41.06;101906.72;10456079;28;20040;-74
2022/05/21 14:19:17;;;;;;;11.23;4.47;;;;;;;21.12;44.03;101904.53;10451035;28;20029;-75
2022/05/21 14:24:24;;;;;;;8.80;4.28;;;;;;;20.73;41.92;101901.00;10453093;28;20024;-74
2022/05/21 14:29:33;;;;;;;11.40;4.22;;;;;;;20.50;46.16;101912.03;10452441;28;20035;-75
2022/05/21 14:34:33;;;;;;;10.52;4.22;;;;;;;20.39;43.75;101903.81;10453470;28;20045;-74
2022/05/21 14:39:34;;;;;;;8.50;4.47;;;;;;;21.15;44.36;101895.69;10451578;28;20048;-75
2022/05/21 14:44:34;;;;;;;6.57;3.50;;;;;;;22.42;38.57;101885.50;10452797;28;20064;-74
2022/05/21 14:49:35;;;;;;;7.17;4.17;;;;;;;21.71;39.58;101898.56;10454688;28;20404;-74
2022/05/21 14:54:36;;;;;;;8.13;3.10;;;;;;;21.47;40.55;101895.44;10441508;28;20037;-75
2022/05/21 14:59:38;;;;;;;9.98;3.08;;;;;;;21.31;42.42;101884.50;10460528;28;20473;-74
2022/05/21 15:04:38;;;;;;;7.93;2.60;;;;;;;21.04;42.12;101880.41;10444327;28;20086;-75
2022/05/21 15:09:39;;;;;;;9.32;3.78;;;;;;;20.78;42.32;101883.41;10444505;28;20041;-74
2022/05/21 15:14:40;;;;;;;7.40;3.95;;;;;;;20.28;44.40;101881.41;10464250;28;20049;-74
2022/05/21 15:19:40;;;;;;;11.90;3.47;;;;;;;20.26;44.53;101875.16;10449989;28;20049;-74
2022/05/21 15:24:41;;;;;;;8.02;3.92;;;;;;;20.31;43.32;101869.94;10448877;28;20032;-76
2022/05/21 15:29:44;;;;;;;8.30;3.40;;;;;;;20.10;43.17;101865.91;10456567;28;20068;-74
2022/05/21 15:34:44;;;;;;;11.75;4.65;;;;;;;20.09;44.50;101854.38;10456410;28;20090;-76
2022/05/21 15:39:45;;;;;;;4.85;2.78;;;;;;;20.12;44.30;101856.19;10456371;28;20033;-74
2022/05/21 15:44:47;;;;;;;7.75;4.22;;;;;;;20.41;43.61;101852.44;10457689;28;20036;-74
2022/05/21 15:49:47;;;;;;;7.50;3.38;;;;;;;20.15;44.20;101847.41;10456252;28;20396;-73
2022/05/21 15:54:48;;;;;;;5.95;3.30;;;;;;;20.03;46.43;101834.72;10457193;28;20060;-74
2022/05/21 15:59:48;;;;;;;8.75;3.25;;;;;;;20.04;43.88;101833.88;10460126;28;20064;-73
2022/05/21 16:04:50;;;;;;;7.55;4.15;;;;;;;20.32;43.52;101838.06;10450462;28;20037;-74
2022/05/21 16:09:53;;;;;;;10.50;3.42;;;;;;;20.43;44.02;101826.78;10416906;28;20041;-74
2022/05/21 16:14:54;;;;;;;8.25;3.95;;;;;;;20.60;43.86;101827.13;10456961;28;20036;-75
2022/05/21 16:19:54;;;;;;;7.28;2.83;;;;;;;20.52;48.64;101819.91;10454308;28;20051;-75
2022/05/21 16:24:54;;;;;;;15.98;3.40;;;;;;;20.01;44.79;101807.22;10456057;28;20488;-74
2022/05/21 16:29:59;;;;;;;7.78;4.03;;;;;;;19.76;46.42;101819.88;10456029;28;20067;-74
2022/05/21 16:34:59;;;;;;;9.75;5.10;;;;;;;19.30;47.31;101812.53;10433819;28;20091;-74
2022/05/21 16:40:03;;;;;;;6.68;3.85;;;;;;;19.04;47.62;101809.19;10440929;28;20070;-74
2022/05/21 16:45:04;;;;;;;8.38;4.03;;;;;;;19.07;47.29;101798.66;10455257;28;20044;-75
2022/05/21 16:50:05;;;;;;;9.27;5.17;;;;;;;18.97;48.35;101796.59;10453661;28;20128;-74
2022/05/21 16:55:06;;;;;;;7.47;4.20;;;;;;;18.88;48.39;101803.41;10452197;28;20029;-75
2022/05/21 17:00:07;;;;;;;11.10;5.53;;;;;;;18.88;49.46;101799.84;10438926;28;20477;-75
2022/05/21 17:05:10;;;;;;;9.55;4.15;;;;;;;18.71;49.18;101786.13;10454519;28;20032;-73
2022/05/21 17:10:11;;;;;;;6.78;4.13;;;;;;;18.62;50.07;101776.13;10452342;28;20044;-74
2022/05/21 17:15:12;;;;;;;12.32;4.32;;;;;;;18.61;49.97;101777.00;10451905;28;20044;-74
2022/05/21 17:20:12;;;;;;;13.02;4.43;;;;;;;18.47;50.94;101766.88;10454444;28;20052;-75
2022/05/21 17:25:13;;;;;;;10.13;4.60;;;;;;;18.24;53.80;101778.53;10452558;28;20060;-75
2022/05/21 17:30:29;;;;;;;8.48;5.63;;;;;;;18.14;50.79;101774.72;10454394;28;20480;-74
2022/05/21 17:35:32;;;;;;;7.15;4.35;;;;;;;18.09;51.22;101774.56;10452937;28;20037;-74
2022/05/21 17:40:32;;;;;;;8.88;4.78;;;;;;;18.11;51.18;101777.28;10436466;28;20028;-75
2022/05/21 17:45:33;;;;;;;8.77;5.13;;;;;;;18.00;51.50;101783.16;10453132;28;20031;-73
2022/05/21 17:50:34;;;;;;;12.15;5.85;;;;;;;17.90;52.49;101775.72;10436934;28;20558;-73
2022/05/21 17:55:35;;;;;;;12.83;5.37;;;;;;;17.77;53.03;101785.00;10450964;28;20136;-74
2022/05/21 18:00:36;;;;;;;9.77;5.82;;;;;;;17.53;54.07;101793.94;10449682;28;20493;-73
2022/05/21 18:05:42;;;;;;;12.10;4.70;;;;;;;17.26;57.34;101792.13;10453212;28;20029;-73
2022/05/21 18:10:43;;;;;;;8.95;4.80;;;;;;;17.06;58.74;101780.88;10453261;28;20064;-73
2022/05/21 18:21:04;;;;;;;18.73;6.85;;;;;;;17.16;57.93;101782.06;10454213;28;20119;-75
2022/05/21 18:26:04;;;;;;;16.80;6.70;;;;;;;17.16;58.39;101777.69;10434108;28;20045;-74
2022/05/21 18:31:05;;;;;;;12.65;5.53;;;;;;;16.98;59.22;101780.56;10453978;28;20385;-73
2022/05/21 18:36:06;;;;;;;18.73;8.90;;;;;;;16.77;58.12;101788.63;10412311;28;20044;-74
2022/05/21 18:41:10;;;;;;;15.38;9.02;;;;;;;16.48;59.62;101791.06;10417530;28;20082;-74
2022/05/21 18:46:15;;;;;;;17.08;10.10;;;;;;;16.08;61.62;101787.75;10468484;28;20400;-74
2022/05/21 18:51:15;;;;;;;21.23;10.35;;;;;;;15.67;64.23;101786.94;10470634;28;20090;-74
2022/05/21 18:56:19;;;;;;;16.55;9.85;;;;;;;15.36;66.00;101781.28;10450952;28;20041;-74
2022/05/21 19:01:21;;;;;;;15.82;9.82;;;;;;;14.90;66.86;101779.28;10442889;28;20032;-74
2022/05/21 19:06:22;;;;;;;15.07;10.38;;;;;;;14.53;69.43;101779.41;10434512;28;20476;-74
2022/05/21 19:11:23;;;;;;;10.85;6.68;;;;;;;14.21;70.80;101786.69;10452123;28;20041;-74
2022/05/21 19:16:24;;;;;;;18.27;6.47;;;;;;;13.87;71.88;101787.72;10453325;28;20069;-74
2022/05/21 19:21:24;;;;;;;12.85;8.15;;;;;;;13.48;73.92;101796.31;10449992;28;20047;-74
2022/05/21 19:26:25;;;;;;;15.73;9.38;;;;;;;13.25;77.99;101791.56;10451160;28;20028;-74
2022/05/21 19:31:26;;;;;;;13.30;8.82;;;;;;;13.00;78.13;101783.31;10453076;28;20423;-74
2022/05/21 19:36:26;;;;;;;19.75;10.25;;;;;;;12.63;78.40;101792.75;10468154;28;20120;-74
2022/05/21 19:41:27;;;;;;;11.93;7.53;;;;;;;12.34;79.51;101804.31;10459031;28;20060;-74
2022/05/21 19:46:27;;;;;;;15.23;10.23;;;;;;;12.06;81.29;101807.09;10459094;28;20065;-74
2022/05/21 19:51:28;;;;;;;14.68;8.35;;;;;;;11.75;81.15;101811.47;10457452;28;20512;-74
2022/05/21 19:56:28;;;;;;;14.85;8.15;;;;;;;11.50;81.42;101814.38;10458393;28;20077;-74
2022/05/21 20:01:31;;;;;;;12.48;7.75;;;;;;;11.36;83.89;101826.66;10459261;28;20153;-74
2022/05/21 20:06:31;;;;;;;14.98;9.90;;;;;;;11.32;85.30;101830.81;10457701;28;20037;-74
2022/05/21 20:11:32;;;;;;;15.65;9.88;;;;;;;11.24;84.81;101837.31;10475264;28;20125;-74
2022/05/21 20:16:34;;;;;;;14.20;7.60;;;;;;;11.10;85.60;101832.13;10456675;28;20060;-74
2022/05/21 20:21:34;;;;;;;;;;;;;;;11.00;86.08;101827.13;10457343;28;20037;-75
2022/05/21 20:26:35;;;;;;;13.82;9.45;;;;;;;10.86;86.41;101823.69;10458641;28;20011;-74
2022/05/21 20:31:36;;;;;;;15.30;8.52;;;;;;;10.69;87.12;101820.91;10459099;28;20056;-74
2022/05/21 20:36:36;;;;;;;15.93;7.35;;;;;;;10.60;88.00;101815.13;10453213;28;20385;-76
2022/05/21 20:41:37;;;;;;;17.85;7.50;;;;;;;10.41;87.75;101826.13;10469545;28;20056;-74
2022/05/21 20:46:37;;;;;;;18.67;10.10;;;;;;;10.21;87.67;101823.09;10458284;28;20065;-74
2022/05/21 20:51:38;;;;;;;11.18;6.82;;;;;;;10.05;88.26;101829.06;10456512;28;20072;-74
2022/05/21 20:56:38;;;;;;;11.20;6.40;;;;;;;9.95;88.72;101842.34;10456854;28;20069;-74
2022/05/21 21:01:39;;;;;;;14.73;9.32;;;;;;;9.95;90.32;101831.88;10457088;28;20492;-74
2022/05/21 21:06:40;;;;;;;11.93;7.15;;;;;;;9.92;90.67;101839.53;10453214;28;20033;-74
2022/05/21 21:11:42;;;;;;;13.63;8.07;;;;;;;9.84;90.79;101828.53;10455510;28;20053;-74
2022/05/21 21:16:43;;;;;;;23.42;9.20;;;;;;;9.87;91.94;101826.13;10454581;28;20052;-74
2022/05/21 21:21:43;;;;;;;13.02;7.65;;;;;;;9.76;91.70;101824.50;10455376;28;20033;-74
2022/05/21 21:26:44;;;;;;;12.07;8.60;;;;;;;9.73;92.82;101816.47;10454165;28;20499;-74
2022/05/21 21:31:44;;;;;;;16.15;9.73;;;;;;;9.79;93.20;101816.88;10456090;28;20110;-74
2022/05/21 21:36:45;;;;;;;27.92;10.43;;;;;;;9.76;93.88;101808.81;10470263;28;20060;-75
2022/05/21 21:41:45;;;;;;;18.02;8.30;;;;;;;9.76;94.35;101809.75;10454733;28;20511;-74
2022/05/21 21:46:46;;;;;;;16.92;9.93;;;;;;;9.75;93.61;101796.56;10454869;28;20481;-74
2022/05/21 21:51:47;;;;;;;19.45;10.88;;;;;;;9.63;93.57;101792.34;10454096;28;20456;-74
2022/05/21 21:56:47;;;;;;;17.13;12.25;;;;;;;9.50;93.91;101788.00;10455310;28;20045;-75
2022/05/21 22:01:48;;;;;;;15.15;9.43;;;;;;;9.48;94.46;101786.09;10453301;28;20116;-74
2022/05/21 22:06:50;;;;;;;25.40;13.73;;;;;;;9.49;94.83;101778.38;10449191;28;20452;-74
2022/05/21 22:11:51;;;;;;;18.30;11.82;;;;;;;9.44;95.02;101786.69;10451579;28;20123;-74
2022/05/21 22:16:51;;;;;;;16.92;11.90;;;;;;;9.37;94.86;101780.16;10451752;28;20045;-74
2022/05/21 22:21:55;;;;;;;15.27;11.85;;;;;;;9.34;94.96;101788.69;10454483;28;20043;-74
2022/05/21 22:26:58;;;;;;;18.13;13.35;;;;;;;9.34;95.80;101786.06;10452133;28;20059;-74
2022/05/21 22:31:58;;;;;;;16.00;11.80;;;;;;;9.39;96.04;101787.28;10470228;28;20029;-74
2022/05/21 22:36:59;;;;;;;23.55;11.85;;;;;;;9.42;96.61;101789.22;10452484;28;20134;-74
2022/05/21 22:41:59;;;;;;;22.02;13.48;;;;;;;9.39;96.98;101794.22;10453051;28;20112;-74
2022/05/21 22:47:00;;;;;;;21.30;14.48;;;;;;;9.31;97.10;101787.56;10453586;28;20126;-74
2022/05/21 22:52:00;;;;;;;21.90;11.00;;;;;;;9.29;97.35;101795.28;10453983;28;20408;-74
2022/05/21 22:57:01;;;;;;;25.05;12.77;;;;;;;9.34;97.28;101783.44;10452728;28;20037;-74
2022/05/21 23:02:01;;;;;;;19.65;12.40;;;;;;;9.29;97.44;101781.34;10452709;28;20468;-74
2022/05/21 23:07:04;;;;;;;20.55;12.32;;;;;;;9.18;97.09;101778.91;10452678;28;20036;-74
2022/05/21 23:12:04;;;;;;;18.50;12.52;;;;;;;9.05;96.71;101782.38;10453312;28;20481;-74
2022/05/21 23:22:24;;;;;;;21.63;12.80;;;;;;;9.00;97.22;101772.44;10475036;28;20028;-74
2022/05/21 23:27:25;;;;;;;20.30;14.02;;;;;;;8.93;97.68;101764.19;10460271;28;20065;-74
2022/05/21 23:32:26;;;;;;;23.23;12.63;;;;;;;8.93;97.59;101755.44;10458779;28;20052;-74
2022/05/21 23:37:26;;;;;;;28.67;15.55;;;;;;;8.87;98.11;101753.31;10475812;28;20849;-74
2022/05/21 23:42:27;;;;;;;20.05;14.73;;;;;;;8.81;97.93;101761.63;10461172;28;20128;-74
2022/05/21 23:47:27;;;;;;;21.80;16.08;;;;;;;8.78;97.89;101758.78;10457242;28;20049;-74
2022/05/21 23:52:28;;;;;;;25.95;16.40;;;;;;;8.69;97.88;101749.44;10460169;28;20048;-74
2022/05/21 23:57:28;;;;;;;24.83;14.05;;;;;;;8.51;97.82;101750.84;10459468;28;20065;-74
